Urb Fuentebella, Puerto Rico
Current Conditions -  °F | °C
As of 8:56 AM on Sunday 21 Dec 2014 (Local Time) from TJSJ Reporting Station
Scattered Clouds Scattered Clouds  
Wind Chill: 80°   Ceiling: Unl
Heat Index: 83°   Visibility: 10mi
Dew Point: 70°   Wind: 7mph
Humidity: 71%   Direction: 100°E
Pressure: 30.09"   Gusts: NA
Location:  18.3893°N, 66.2481°W
Report Text: TJSJ 211256Z 10006KT 10SM FEW031 SCT070 27/21 A3009 RMK AO2 SLP187 T02670211
Loading
Personal Weather Stations






























Interactive Weather Map New forecast layout! Learn more

10-Day Weather Forecast

Advertisements
Track Severe Weather on mobile